Urb Luchetti, Puerto Rico
Current Conditions -  °F | °C
As of 11:50 AM on Thursday 27 Nov 2014 (Local Time) from TJBQ Reporting Station
Clear Clear  
Wind Chill: 82°   Ceiling: Unl
Heat Index: 85°   Visibility: 10mi
Dew Point: 66°   Wind: 17mph
Humidity: 58%   Direction: 80°E
Pressure: 30"   Gusts: 24mph
Location:  18.0306°N, 66.8507°W
Report Text: TJBQ 271550Z 08015G21KT 10SM SKC 28/19 A3000 RMK RWY08 ATIS C
Loading
Personal Weather Stations






























Interactive Weather Map New forecast layout! Learn more

10-Day Weather Forecast

Advertisements
Track Severe Weather on mobile